sensor_id;sensor_type;location;lat;lon;timestamp;temperature;humidity
13205;DHT22;6667;52.634;9.226;2022-11-20T07:54:28;-0.10;62.40
13205;DHT22;6667;52.634;9.226;2022-11-20T07:56:55;-0.10;58.20
13205;DHT22;6667;52.634;9.226;2022-11-20T07:59:22;-0.10;55.50
13205;DHT22;6667;52.634;9.226;2022-11-20T08:01:48;-0.10;53.20
13205;DHT22;6667;52.634;9.226;2022-11-20T08:04:15;-0.10;52.30
13205;DHT22;6667;52.634;9.226;2022-11-20T08:06:42;-0.10;46.90
13205;DHT22;6667;52.634;9.226;2022-11-20T08:09:09;0.00;46.80
13205;DHT22;6667;52.634;9.226;2022-11-20T08:11:38;0.00;45.40
13205;DHT22;6667;52.634;9.226;2022-11-20T08:14:22;0.10;39.40
13205;DHT22;6667;52.634;9.226;2022-11-20T08:16:50;0.00;38.70
13205;DHT22;6667;52.634;9.226;2022-11-20T08:19:18;0.10;39.80
13205;DHT22;6667;52.634;9.226;2022-11-20T08:21:45;0.10;38.70
13205;DHT22;6667;52.634;9.226;2022-11-20T08:24:12;0.10;37.30
13205;DHT22;6667;52.634;9.226;2022-11-20T08:26:40;0.10;36.10
13205;DHT22;6667;52.634;9.226;2022-11-20T08:29:07;0.10;36.20
13205;DHT22;6667;52.634;9.226;2022-11-20T08:31:35;0.10;32.60
13205;DHT22;6667;52.634;9.226;2022-11-20T08:34:02;0.20;32.30
13205;DHT22;6667;52.634;9.226;2022-11-20T08:36:28;0.30;31.60
13205;DHT22;6667;52.634;9.226;2022-11-20T08:38:55;0.30;28.20
13205;DHT22;6667;52.634;9.226;2022-11-20T08:41:22;0.40;27.00
13205;DHT22;6667;52.634;9.226;2022-11-20T08:43:55;0.40;23.40
13205;DHT22;6667;52.634;9.226;2022-11-20T08:46:23;0.50;23.50
13205;DHT22;6667;52.634;9.226;2022-11-20T08:48:50;0.50;23.30
13205;DHT22;6667;52.634;9.226;2022-11-20T08:51:17;0.60;22.00
13205;DHT22;6667;52.634;9.226;2022-11-20T08:53:43;0.60;22.00
13205;DHT22;6667;52.634;9.226;2022-11-20T08:56:10;0.70;22.50
13205;DHT22;6667;52.634;9.226;2022-11-20T08:58:37;0.70;20.70
13205;DHT22;6667;52.634;9.226;2022-11-20T09:01:06;0.70;21.20
13205;DHT22;6667;52.634;9.226;2022-11-20T09:03:33;0.70;21.20
13205;DHT22;6667;52.634;9.226;2022-11-20T09:06:01;0.60;20.60
13205;DHT22;6667;52.634;9.226;2022-11-20T09:08:29;0.70;22.00
13205;DHT22;6667;52.634;9.226;2022-11-20T09:10:56;0.60;20.90
13205;DHT22;6667;52.634;9.226;2022-11-20T09:13:24;0.70;21.20
13205;DHT22;6667;52.634;9.226;2022-11-20T09:15:55;0.70;22.20
13205;DHT22;6667;52.634;9.226;2022-11-20T09:18:23;0.60;20.50
13205;DHT22;6667;52.634;9.226;2022-11-20T09:20:50;0.60;20.70
13205;DHT22;6667;52.634;9.226;2022-11-20T09:23:17;0.70;20.30
13205;DHT22;6667;52.634;9.226;2022-11-20T09:25:44;0.60;20.50
13205;DHT22;6667;52.634;9.226;2022-11-20T09:28:11;0.50;20.00
13205;DHT22;6667;52.634;9.226;2022-11-20T09:30:38;0.50;20.20
13205;DHT22;6667;52.634;9.226;2022-11-20T09:33:05;0.50;20.70
13205;DHT22;6667;52.634;9.226;2022-11-20T09:35:33;0.50;19.90
13205;DHT22;6667;52.634;9.226;2022-11-20T09:38:05;0.50;20.60
13205;DHT22;6667;52.634;9.226;2022-11-20T09:40:32;0.50;21.10
13205;DHT22;6667;52.634;9.226;2022-11-20T09:43:04;0.60;21.00
13205;DHT22;6667;52.634;9.226;2022-11-20T09:45:54;0.60;21.90
13205;DHT22;6667;52.634;9.226;2022-11-20T09:48:42;0.60;21.50
13205;DHT22;6667;52.634;9.226;2022-11-20T09:51:21;0.50;21.90
13205;DHT22;6667;52.634;9.226;2022-11-20T09:54:03;0.60;24.40
13205;DHT22;6667;52.634;9.226;2022-11-20T09:56:35;0.70;24.10
13205;DHT22;6667;52.634;9.226;2022-11-20T09:59:06;0.60;22.60
13205;DHT22;6667;52.634;9.226;2022-11-20T10:01:35;0.60;22.30
13205;DHT22;6667;52.634;9.226;2022-11-20T10:04:10;0.50;24.50
13205;DHT22;6667;52.634;9.226;2022-11-20T10:06:44;0.50;24.10
13205;DHT22;6667;52.634;9.226;2022-11-20T10:09:21;0.50;25.30
13205;DHT22;6667;52.634;9.226;2022-11-20T10:12:00;0.50;28.90
13205;DHT22;6667;52.634;9.226;2022-11-20T10:14:36;0.60;25.60
13205;DHT22;6667;52.634;9.226;2022-11-20T10:17:15;0.60;28.40
13205;DHT22;6667;52.634;9.226;2022-11-20T10:20:00;0.60;27.90
13205;DHT22;6667;52.634;9.226;2022-11-20T10:22:42;0.70;27.70
13205;DHT22;6667;52.634;9.226;2022-11-20T10:25:14;0.60;26.10
13205;DHT22;6667;52.634;9.226;2022-11-20T10:30:36;0.70;27.60
13205;DHT22;6667;52.634;9.226;2022-11-20T10:33:06;0.70;27.90
13205;DHT22;6667;52.634;9.226;2022-11-20T10:35:42;0.70;27.10
13205;DHT22;6667;52.634;9.226;2022-11-20T10:38:16;0.70;27.60
13205;DHT22;6667;52.634;9.226;2022-11-20T10:40:48;0.70;23.80
13205;DHT22;6667;52.634;9.226;2022-11-20T10:43:21;0.70;26.00
13205;DHT22;6667;52.634;9.226;2022-11-20T10:45:58;0.70;26.10
13205;DHT22;6667;52.634;9.226;2022-11-20T10:48:27;0.80;24.10
13205;DHT22;6667;52.634;9.226;2022-11-20T10:51:11;0.80;23.60
13205;DHT22;6667;52.634;9.226;2022-11-20T10:54:00;0.80;23.90
13205;DHT22;6667;52.634;9.226;2022-11-20T10:56:38;0.80;22.00
13205;DHT22;6667;52.634;9.226;2022-11-20T10:59:38;0.90;24.80
13205;DHT22;6667;52.634;9.226;2022-11-20T11:02:19;0.90;27.10
13205;DHT22;6667;52.634;9.226;2022-11-20T11:04:47;0.90;39.90
13205;DHT22;6667;52.634;9.226;2022-11-20T11:07:17;0.90;41.50
13205;DHT22;6667;52.634;9.226;2022-11-20T11:09:50;0.90;43.80
13205;DHT22;6667;52.634;9.226;2022-11-20T11:12:19;0.80;43.70
13205;DHT22;6667;52.634;9.226;2022-11-20T11:14:49;0.90;46.30
13205;DHT22;6667;52.634;9.226;2022-11-20T11:17:25;0.90;46.40
13205;DHT22;6667;52.634;9.226;2022-11-20T11:20:13;0.80;53.60
13205;DHT22;6667;52.634;9.226;2022-11-20T11:22:45;0.70;66.70
13205;DHT22;6667;52.634;9.226;2022-11-20T11:25:22;0.70;76.20
13205;DHT22;6667;52.634;9.226;2022-11-20T11:27:50;0.80;85.80
13205;DHT22;6667;52.634;9.226;2022-11-20T11:30:19;0.70;92.30
13205;DHT22;6667;52.634;9.226;2022-11-20T11:32:47;0.80;98.10
13205;DHT22;6667;52.634;9.226;2022-11-20T11:35:22;0.70;96.80
13205;DHT22;6667;52.634;9.226;2022-11-20T11:37:51;0.80;97.10
13205;DHT22;6667;52.634;9.226;2022-11-20T11:40:21;0.80;92.50
13205;DHT22;6667;52.634;9.226;2022-11-20T11:42:54;0.70;82.40
13205;DHT22;6667;52.634;9.226;2022-11-20T11:45:23;0.60;84.30
13205;DHT22;6667;52.634;9.226;2022-11-20T11:47:51;0.70;84.10
13205;DHT22;6667;52.634;9.226;2022-11-20T11:50:21;0.60;79.90
13205;DHT22;6667;52.634;9.226;2022-11-20T11:52:56;0.60;75.80
13205;DHT22;6667;52.634;9.226;2022-11-20T11:55:33;0.50;72.20
13205;DHT22;6667;52.634;9.226;2022-11-20T11:58:16;0.50;75.20
13205;DHT22;6667;52.634;9.226;2022-11-20T12:00:51;0.60;80.70
13205;DHT22;6667;52.634;9.226;2022-11-20T12:03:27;0.60;77.50
13205;DHT22;6667;52.634;9.226;2022-11-20T12:05:58;0.90;91.90
13205;DHT22;6667;52.634;9.226;2022-11-20T12:08:30;1.10;85.40
13205;DHT22;6667;52.634;9.226;2022-11-20T12:11:04;1.10;76.30
13205;DHT22;6667;52.634;9.226;2022-11-20T12:13:42;1.10;70.70
13205;DHT22;6667;52.634;9.226;2022-11-20T12:16:13;1.20;78.20
13205;DHT22;6667;52.634;9.226;2022-11-20T12:18:40;1.20;89.10
13205;DHT22;6667;52.634;9.226;2022-11-20T12:21:17;1.30;78.80
13205;DHT22;6667;52.634;9.226;2022-11-20T12:23:54;1.30;76.00
13205;DHT22;6667;52.634;9.226;2022-11-20T12:26:34;1.30;71.70
13205;DHT22;6667;52.634;9.226;2022-11-20T12:29:09;1.30;63.90
13205;DHT22;6667;52.634;9.226;2022-11-20T12:34:56;1.30;61.40
13205;DHT22;6667;52.634;9.226;2022-11-20T12:37:36;1.40;59.70
13205;DHT22;6667;52.634;9.226;2022-11-20T12:40:17;1.40;53.00
13205;DHT22;6667;52.634;9.226;2022-11-20T12:42:57;1.40;49.70
13205;DHT22;6667;52.634;9.226;2022-11-20T12:46:07;1.50;45.20
13205;DHT22;6667;52.634;9.226;2022-11-20T12:48:52;1.50;44.10
13205;DHT22;6667;52.634;9.226;2022-11-20T12:51:31;1.50;40.00
13205;DHT22;6667;52.634;9.226;2022-11-20T12:56:56;1.60;40.80
13205;DHT22;6667;52.634;9.226;2022-11-20T12:59:38;1.60;39.20
13205;DHT22;6667;52.634;9.226;2022-11-20T13:02:18;1.70;41.30
13205;DHT22;6667;52.634;9.226;2022-11-20T13:05:01;1.60;38.20
13205;DHT22;6667;52.634;9.226;2022-11-20T13:07:32;1.60;35.50
13205;DHT22;6667;52.634;9.226;2022-11-20T13:10:00;1.60;36.90
13205;DHT22;6667;52.634;9.226;2022-11-20T13:12:31;1.50;40.20
13205;DHT22;6667;52.634;9.226;2022-11-20T13:15:07;1.50;38.80
13205;DHT22;6667;52.634;9.226;2022-11-20T13:17:41;1.50;42.40
13205;DHT22;6667;52.634;9.226;2022-11-20T13:20:14;1.60;47.80
13205;DHT22;6667;52.634;9.226;2022-11-20T13:22:46;1.60;48.40
13205;DHT22;6667;52.634;9.226;2022-11-20T13:25:23;1.60;44.80
13205;DHT22;6667;52.634;9.226;2022-11-20T13:27:50;1.60;45.30
13205;DHT22;6667;52.634;9.226;2022-11-20T13:30:20;1.70;45.40
13205;DHT22;6667;52.634;9.226;2022-11-20T13:32:52;1.70;43.10
13205;DHT22;6667;52.634;9.226;2022-11-20T13:35:31;1.70;41.70
13205;DHT22;6667;52.634;9.226;2022-11-20T13:38:04;1.70;45.00
13205;DHT22;6667;52.634;9.226;2022-11-20T13:40:31;1.70;43.20
13205;DHT22;6667;52.634;9.226;2022-11-20T13:43:07;1.70;43.60
13205;DHT22;6667;52.634;9.226;2022-11-20T13:45:36;1.70;46.60
13205;DHT22;6667;52.634;9.226;2022-11-20T13:48:04;1.70;46.70
13205;DHT22;6667;52.634;9.226;2022-11-20T13:50:40;1.70;45.10
13205;DHT22;6667;52.634;9.226;2022-11-20T13:53:20;1.70;43.60
13205;DHT22;6667;52.634;9.226;2022-11-20T13:55:54;1.70;41.60
13205;DHT22;6667;52.634;9.226;2022-11-20T13:58:36;1.80;40.80
13205;DHT22;6667;52.634;9.226;2022-11-20T14:01:11;1.80;40.20
13205;DHT22;6667;52.634;9.226;2022-11-20T14:03:41;1.70;37.60
13205;DHT22;6667;52.634;9.226;2022-11-20T14:06:12;1.70;34.40
13205;DHT22;6667;52.634;9.226;2022-11-20T14:08:42;1.50;41.60
13205;DHT22;6667;52.634;9.226;2022-11-20T14:11:16;1.40;45.80
13205;DHT22;6667;52.634;9.226;2022-11-20T14:13:57;1.50;48.20
13205;DHT22;6667;52.634;9.226;2022-11-20T14:16:27;1.60;49.50
13205;DHT22;6667;52.634;9.226;2022-11-20T14:18:55;1.60;47.90
13205;DHT22;6667;52.634;9.226;2022-11-20T14:21:26;1.70;46.50
13205;DHT22;6667;52.634;9.226;2022-11-20T14:24:03;1.70;48.50
13205;DHT22;6667;52.634;9.226;2022-11-20T14:26:31;1.70;49.10
13205;DHT22;6667;52.634;9.226;2022-11-20T14:28:58;1.70;46.40
13205;DHT22;6667;52.634;9.226;2022-11-20T14:31:28;1.70;46.50
13205;DHT22;6667;52.634;9.226;2022-11-20T14:33:55;1.60;49.20
13205;DHT22;6667;52.634;9.226;2022-11-20T14:36:24;1.50;49.50
13205;DHT22;6667;52.634;9.226;2022-11-20T14:38:52;1.40;52.80
13205;DHT22;6667;52.634;9.226;2022-11-20T14:41:20;1.40;58.20
13205;DHT22;6667;52.634;9.226;2022-11-20T14:43:56;1.30;58.90
13205;DHT22;6667;52.634;9.226;2022-11-20T14:46:24;1.30;68.20
13205;DHT22;6667;52.634;9.226;2022-11-20T14:48:55;1.40;76.20
13205;DHT22;6667;52.634;9.226;2022-11-20T14:51:32;1.40;74.80
13205;DHT22;6667;52.634;9.226;2022-11-20T14:54:18;1.40;77.50
13205;DHT22;6667;52.634;9.226;2022-11-20T14:56:54;1.40;70.90
13205;DHT22;6667;52.634;9.226;2022-11-20T14:59:23;1.30;61.00
13205;DHT22;6667;52.634;9.226;2022-11-20T15:01:56;1.30;52.70
13205;DHT22;6667;52.634;9.226;2022-11-20T15:04:24;1.30;51.90
13205;DHT22;6667;52.634;9.226;2022-11-20T15:06:54;1.30;47.90
13205;DHT22;6667;52.634;9.226;2022-11-20T15:09:22;1.20;45.10
13205;DHT22;6667;52.634;9.226;2022-11-20T15:11:54;1.20;44.10
13205;DHT22;6667;52.634;9.226;2022-11-20T15:14:22;1.20;43.80
13205;DHT22;6667;52.634;9.226;2022-11-20T15:16:50;1.20;42.70
13205;DHT22;6667;52.634;9.226;2022-11-20T15:19:19;1.30;40.40
13205;DHT22;6667;52.634;9.226;2022-11-20T15:21:48;1.20;39.70
13205;DHT22;6667;52.634;9.226;2022-11-20T15:24:15;1.20;41.00
13205;DHT22;6667;52.634;9.226;2022-11-20T15:26:42;1.10;41.40
13205;DHT22;6667;52.634;9.226;2022-11-20T15:29:10;1.10;40.80
13205;DHT22;6667;52.634;9.226;2022-11-20T15:31:38;1.10;38.30
13205;DHT22;6667;52.634;9.226;2022-11-20T15:34:09;1.10;39.70
13205;DHT22;6667;52.634;9.226;2022-11-20T15:36:36;1.00;42.20
13205;DHT22;6667;52.634;9.226;2022-11-20T15:39:05;1.00;43.20
13205;DHT22;6667;52.634;9.226;2022-11-20T15:41:32;0.90;45.30
13205;DHT22;6667;52.634;9.226;2022-11-20T15:43:59;0.90;44.90
13205;DHT22;6667;52.634;9.226;2022-11-20T15:46:28;0.90;46.10
13205;DHT22;6667;52.634;9.226;2022-11-20T15:48:56;0.90;50.20
13205;DHT22;6667;52.634;9.226;2022-11-20T15:51:26;0.90;51.50
13205;DHT22;6667;52.634;9.226;2022-11-20T15:53:54;0.80;53.60
13205;DHT22;6667;52.634;9.226;2022-11-20T15:56:23;0.80;57.00
13205;DHT22;6667;52.634;9.226;2022-11-20T15:58:50;0.80;60.60
13205;DHT22;6667;52.634;9.226;2022-11-20T16:01:19;0.80;68.80
13205;DHT22;6667;52.634;9.226;2022-11-20T16:03:47;0.80;71.00
13205;DHT22;6667;52.634;9.226;2022-11-20T16:06:13;0.70;78.10
13205;DHT22;6667;52.634;9.226;2022-11-20T16:08:41;0.60;77.60
13205;DHT22;6667;52.634;9.226;2022-11-20T16:11:10;0.50;76.90
13205;DHT22;6667;52.634;9.226;2022-11-20T16:13:39;0.40;81.00
13205;DHT22;6667;52.634;9.226;2022-11-20T16:16:27;0.50;84.20
13205;DHT22;6667;52.634;9.226;2022-11-20T16:18:55;0.30;86.00
13205;DHT22;6667;52.634;9.226;2022-11-20T16:21:23;0.20;93.10
13205;DHT22;6667;52.634;9.226;2022-11-20T16:23:57;0.10;98.00
13205;DHT22;6667;52.634;9.226;2022-11-20T16:26:24;0.10;99.90
13205;DHT22;6667;52.634;9.226;2022-11-20T16:28:52;0.10;99.90
13205;DHT22;6667;52.634;9.226;2022-11-20T16:31:19;0.10;99.90
13205;DHT22;6667;52.634;9.226;2022-11-20T16:33:49;0.10;99.90
13205;DHT22;6667;52.634;9.226;2022-11-20T16:36:17;0.10;99.90
13205;DHT22;6667;52.634;9.226;2022-11-20T16:38:43;0.00;99.90
13205;DHT22;6667;52.634;9.226;2022-11-20T16:41:10;0.00;99.90
13205;DHT22;6667;52.634;9.226;2022-11-20T16:43:44;0.00;99.90
13205;DHT22;6667;52.634;9.226;2022-11-20T16:46:13;0.00;99.90
13205;DHT22;6667;52.634;9.226;2022-11-20T16:48:40;0.00;99.90
13205;DHT22;6667;52.634;9.226;2022-11-20T16:51:09;-0.10;99.90
13205;DHT22;6667;52.634;9.226;2022-11-20T16:53:36;-0.10;99.90
13205;DHT22;6667;52.634;9.226;2022-11-20T16:56:10;-0.10;99.90
13205;DHT22;6667;52.634;9.226;2022-11-20T16:58:37;-0.20;99.90
13205;DHT22;6667;52.634;9.226;2022-11-20T17:01:05;-0.20;99.90
13205;DHT22;6667;52.634;9.226;2022-11-20T17:03:36;-0.20;99.90
13205;DHT22;6667;52.634;9.226;2022-11-20T17:06:11;-0.30;99.90
13205;DHT22;6667;52.634;9.226;2022-11-20T17:08:37;-0.30;99.90
13205;DHT22;6667;52.634;9.226;2022-11-20T17:11:05;-0.30;99.90
13205;DHT22;6667;52.634;9.226;2022-11-20T17:13:32;-0.40;99.90
13205;DHT22;6667;52.634;9.226;2022-11-20T17:16:01;-0.50;99.90
13205;DHT22;6667;52.634;9.226;2022-11-20T17:18:28;-0.50;99.90
13205;DHT22;6667;52.634;9.226;2022-11-20T17:20:56;-0.40;99.90
13205;DHT22;6667;52.634;9.226;2022-11-20T17:23:26;-0.40;99.90
13205;DHT22;6667;52.634;9.226;2022-11-20T17:26:00;-0.50;99.90
13205;DHT22;6667;52.634;9.226;2022-11-20T17:28:27;-0.50;99.90
13205;DHT22;6667;52.634;9.226;2022-11-20T17:30:58;-0.50;99.90
13205;DHT22;6667;52.634;9.226;2022-11-20T17:33:25;-0.50;99.90
13205;DHT22;6667;52.634;9.226;2022-11-20T17:35:52;-0.60;99.90
13205;DHT22;6667;52.634;9.226;2022-11-20T17:38:20;-0.60;99.90
13205;DHT22;6667;52.634;9.226;2022-11-20T17:40:47;-0.60;99.90
13205;DHT22;6667;52.634;9.226;2022-11-20T17:43:13;-0.60;99.90
13205;DHT22;6667;52.634;9.226;2022-11-20T17:45:41;-0.60;99.90
13205;DHT22;6667;52.634;9.226;2022-11-20T17:48:08;-0.60;99.90
13205;DHT22;6667;52.634;9.226;2022-11-20T17:50:34;-0.60;99.90
13205;DHT22;6667;52.634;9.226;2022-11-20T17:53:01;-0.70;99.90
13205;DHT22;6667;52.634;9.226;2022-11-20T17:55:30;-0.80;99.90
13205;DHT22;6667;52.634;9.226;2022-11-20T17:58:16;-0.80;99.90
13205;DHT22;6667;52.634;9.226;2022-11-20T18:00:42;-0.70;99.90
13205;DHT22;6667;52.634;9.226;2022-11-20T18:03:10;-0.80;99.90
13205;DHT22;6667;52.634;9.226;2022-11-20T18:05:36;-0.70;99.90
13205;DHT22;6667;52.634;9.226;2022-11-20T18:08:03;-0.80;99.90
13205;DHT22;6667;52.634;9.226;2022-11-20T18:10:31;-0.80;99.90
13205;DHT22;6667;52.634;9.226;2022-11-20T18:12:59;-0.80;99.90
13205;DHT22;6667;52.634;9.226;2022-11-20T18:15:26;-0.80;99.90
13205;DHT22;6667;52.634;9.226;2022-11-20T18:17:53;-0.80;99.90
13205;DHT22;6667;52.634;9.226;2022-11-20T18:20:20;-0.90;99.90
13205;DHT22;6667;52.634;9.226;2022-11-20T18:22:47;-0.90;99.90
13205;DHT22;6667;52.634;9.226;2022-11-20T18:25:13;-0.90;99.90
13205;DHT22;6667;52.634;9.226;2022-11-20T18:27:41;-0.90;99.90
13205;DHT22;6667;52.634;9.226;2022-11-20T18:30:10;-1.00;99.90
13205;DHT22;6667;52.634;9.226;2022-11-20T18:32:37;-1.00;99.90
13205;DHT22;6667;52.634;9.226;2022-11-20T18:35:04;-1.00;99.90
13205;DHT22;6667;52.634;9.226;2022-11-20T18:37:31;-1.00;99.90
13205;DHT22;6667;52.634;9.226;2022-11-20T18:39:58;-0.90;99.90
13205;DHT22;6667;52.634;9.226;2022-11-20T18:42:25;-1.00;99.90
13205;DHT22;6667;52.634;9.226;2022-11-20T18:45:10;-1.00;99.90
13205;DHT22;6667;52.634;9.226;2022-11-20T18:47:37;-0.90;99.90
13205;DHT22;6667;52.634;9.226;2022-11-20T18:50:06;-0.90;99.90
13205;DHT22;6667;52.634;9.226;2022-11-20T18:52:37;-0.90;99.90
13205;DHT22;6667;52.634;9.226;2022-11-20T18:55:05;-0.90;99.90
13205;DHT22;6667;52.634;9.226;2022-11-20T18:57:32;-0.90;99.90
13205;DHT22;6667;52.634;9.226;2022-11-20T18:59:58;-0.80;99.90
13205;DHT22;6667;52.634;9.226;2022-11-20T19:02:27;-0.80;99.90
13205;DHT22;6667;52.634;9.226;2022-11-20T19:04:54;-0.70;99.90
13205;DHT22;6667;52.634;9.226;2022-11-20T19:07:22;-0.70;99.90
13205;DHT22;6667;52.634;9.226;2022-11-20T19:09:50;-0.60;99.90
13205;DHT22;6667;52.634;9.226;2022-11-20T19:12:18;-0.50;99.90
13205;DHT22;6667;52.634;9.226;2022-11-20T19:14:45;-0.50;99.90
13205;DHT22;6667;52.634;9.226;2022-11-20T19:17:12;-0.50;99.90
13205;DHT22;6667;52.634;9.226;2022-11-20T19:19:40;-0.50;99.90
13205;DHT22;6667;52.634;9.226;2022-11-20T19:22:07;-0.40;99.90
13205;DHT22;6667;52.634;9.226;2022-11-20T19:24:34;-0.40;99.90
13205;DHT22;6667;52.634;9.226;2022-11-20T19:27:01;-0.40;99.90
13205;DHT22;6667;52.634;9.226;2022-11-20T19:29:28;-0.40;99.90
13205;DHT22;6667;52.634;9.226;2022-11-20T19:31:55;-0.40;99.90
13205;DHT22;6667;52.634;9.226;2022-11-20T19:34:21;-0.40;99.90
13205;DHT22;6667;52.634;9.226;2022-11-20T19:36:50;-0.30;99.90
13205;DHT22;6667;52.634;9.226;2022-11-20T19:39:17;-0.30;99.90
13205;DHT22;6667;52.634;9.226;2022-11-20T19:41:43;-0.30;99.90
13205;DHT22;6667;52.634;9.226;2022-11-20T19:44:11;-0.30;82.40
13205;DHT22;6667;52.634;9.226;2022-11-20T19:46:40;-0.20;70.20
13205;DHT22;6667;52.634;9.226;2022-11-20T19:49:08;-0.30;1.00
13205;DHT22;6667;52.634;9.226;2022-11-20T19:51:36;-0.30;1.00
13205;DHT22;6667;52.634;9.226;2022-11-20T19:54:06;-0.30;1.00
13205;DHT22;6667;52.634;9.226;2022-11-20T19:56:33;-0.20;1.00
13205;DHT22;6667;52.634;9.226;2022-11-20T19:59:00;-0.20;99.90
13205;DHT22;6667;52.634;9.226;2022-11-20T20:01:29;-0.10;99.90
13205;DHT22;6667;52.634;9.226;2022-11-20T20:03:57;-0.10;1.00
13205;DHT22;6667;52.634;9.226;2022-11-20T20:06:26;-0.10;1.00
13205;DHT22;6667;52.634;9.226;2022-11-20T20:08:54;-0.20;99.90
13205;DHT22;6667;52.634;9.226;2022-11-20T20:11:23;-0.30;99.90
13205;DHT22;6667;52.634;9.226;2022-11-20T20:13:50;-0.40;1.00
13205;DHT22;6667;52.634;9.226;2022-11-20T20:16:18;-0.40;1.00
13205;DHT22;6667;52.634;9.226;2022-11-20T20:18:46;-0.40;1.00
13205;DHT22;6667;52.634;9.226;2022-11-20T20:21:15;-0.40;99.90
13205;DHT22;6667;52.634;9.226;2022-11-20T20:23:43;-0.40;1.00
13205;DHT22;6667;52.634;9.226;2022-11-20T20:26:10;-0.40;99.90
13205;DHT22;6667;52.634;9.226;2022-11-20T20:28:38;-0.40;99.90
13205;DHT22;6667;52.634;9.226;2022-11-20T20:31:07;-0.40;99.90
13205;DHT22;6667;52.634;9.226;2022-11-20T20:33:35;-0.30;1.00
13205;DHT22;6667;52.634;9.226;2022-11-20T20:36:02;-0.30;1.00
13205;DHT22;6667;52.634;9.226;2022-11-20T20:38:29;-0.30;99.90
13205;DHT22;6667;52.634;9.226;2022-11-20T20:40:56;-0.40;1.00
13205;DHT22;6667;52.634;9.226;2022-11-20T20:43:22;-0.40;83.90
13205;DHT22;6667;52.634;9.226;2022-11-20T20:45:51;-0.40;99.90
13205;DHT22;6667;52.634;9.226;2022-11-20T20:48:19;-0.40;1.00
13205;DHT22;6667;52.634;9.226;2022-11-20T20:50:52;-0.40;1.00
13205;DHT22;6667;52.634;9.226;2022-11-20T20:53:19;-0.40;99.90
13205;DHT22;6667;52.634;9.226;2022-11-20T20:55:52;-0.40;2.00
13205;DHT22;6667;52.634;9.226;2022-11-20T20:58:19;-0.30;1.00
13205;DHT22;6667;52.634;9.226;2022-11-20T21:00:46;-0.40;1.00
13205;DHT22;6667;52.634;9.226;2022-11-20T21:03:14;-0.40;22.10
13205;DHT22;6667;52.634;9.226;2022-11-20T21:05:42;-0.30;99.90
13205;DHT22;6667;52.634;9.226;2022-11-20T21:08:09;-0.30;1.00
13205;DHT22;6667;52.634;9.226;2022-11-20T21:10:50;-0.30;99.90
13205;DHT22;6667;52.634;9.226;2022-11-20T21:13:17;-0.30;99.90
13205;DHT22;6667;52.634;9.226;2022-11-20T21:15:45;-0.30;99.90
13205;DHT22;6667;52.634;9.226;2022-11-20T21:18:14;-0.20;99.90
13205;DHT22;6667;52.634;9.226;2022-11-20T21:20:42;-0.30;1.00
13205;DHT22;6667;52.634;9.226;2022-11-20T21:23:26;-0.30;1.00
13205;DHT22;6667;52.634;9.226;2022-11-20T21:25:52;-0.20;99.90
13205;DHT22;6667;52.634;9.226;2022-11-20T21:28:19;-0.20;99.90
13205;DHT22;6667;52.634;9.226;2022-11-20T21:30:46;-0.20;1.00
13205;DHT22;6667;52.634;9.226;2022-11-20T21:33:14;-0.20;1.00
13205;DHT22;6667;52.634;9.226;2022-11-20T21:35:41;-0.20;99.90
13205;DHT22;6667;52.634;9.226;2022-11-20T21:38:08;-0.10;1.00
13205;DHT22;6667;52.634;9.226;2022-11-20T21:40:34;-0.10;1.00
13205;DHT22;6667;52.634;9.226;2022-11-20T21:43:01;-0.10;1.00
13205;DHT22;6667;52.634;9.226;2022-11-20T21:45:28;-0.10;1.00
13205;DHT22;6667;52.634;9.226;2022-11-20T21:47:55;-0.20;1.00
13205;DHT22;6667;52.634;9.226;2022-11-20T21:50:23;-0.10;99.90
13205;DHT22;6667;52.634;9.226;2022-11-20T21:52:49;-0.20;1.00
13205;DHT22;6667;52.634;9.226;2022-11-20T21:55:16;-0.20;99.90
13205;DHT22;6667;52.634;9.226;2022-11-20T21:57:43;-0.10;99.90
13205;DHT22;6667;52.634;9.226;2022-11-20T22:00:11;0.00;62.90
13205;DHT22;6667;52.634;9.226;2022-11-20T22:02:38;0.00;8.20
13205;DHT22;6667;52.634;9.226;2022-11-20T22:05:05;0.00;1.00
13205;DHT22;6667;52.634;9.226;2022-11-20T22:07:34;-0.10;99.90
13205;DHT22;6667;52.634;9.226;2022-11-20T22:10:00;-0.10;99.90
13205;DHT22;6667;52.634;9.226;2022-11-20T22:12:27;-0.10;1.00
13205;DHT22;6667;52.634;9.226;2022-11-20T22:14:54;-0.10;99.90
13205;DHT22;6667;52.634;9.226;2022-11-20T22:17:19;-0.10;33.40
13205;DHT22;6667;52.634;9.226;2022-11-20T22:20:08;-0.10;1.00
13205;DHT22;6667;52.634;9.226;2022-11-20T22:22:38;0.00;1.00
13205;DHT22;6667;52.634;9.226;2022-11-20T22:25:05;0.00;99.90
13205;DHT22;6667;52.634;9.226;2022-11-20T22:27:32;0.00;99.90
